Terminal Aerodrome Forecast
Issued by NWS

Home | Current Version | Previous Version | Graphics & Text | Print | Product List | Glossary On
Versions: 1 2 3 4 5 6 7 8 9 10 11 12 13 14 15 16 17 18 19 20 21
000
FTUS43 KFGF 140952 AAA
TAFBJI
TAF AMD
KBJI 140952Z 1410/1506 VRB04KT 5SM BR OVC008
      TEMPO 1410/1413 1/2SM FG VV002
     FM141300 VRB05KT P6SM BKN035
      TEMPO 1413/1415 4SM BR BKN015
     FM142200 09006KT P6SM SCT090=

USA.gov is the U.S. government's official web portal to all federal, state and local government web resources and services.